South Sheridan, Arkansas
Current Conditions -  °F | °C
As of 3:53 PM on Sunday 23 Nov 2014 (Local Time) from KPBF Reporting Station
Overcast Overcast  
Wind Chill: 63°   Ceiling: 2400
Heat Index: 63°   Visibility: 10mi
Dew Point: 60°   Wind: 8mph
Humidity: 90%   Direction: 180°S
Pressure: 29.38"   Gusts: NA
Location:  34.3151°N, 92.3357°W
Report Text: KPBF 232153Z AUTO 18007KT 10SM OVC024 17/16 A2938 RMK AO2 SLP948 T01720156
Loading
Personal Weather Stations






























Interactive Weather Map New forecast layout! Learn more

10-Day Weather Forecast

Advertisements
Track Severe Weather on mobile